createdAt,value
2023-06-30T00:00:23.216Z,18.10
2023-06-30T00:02:50.352Z,18.10
2023-06-30T00:05:17.486Z,18.00
2023-06-30T00:07:45.338Z,18.00
2023-06-30T00:10:12.482Z,18.00
2023-06-30T00:12:39.650Z,17.90
2023-06-30T00:15:07.365Z,17.90
2023-06-30T00:17:34.545Z,17.90
2023-06-30T00:20:06.683Z,17.80
2023-06-30T00:22:37.833Z,17.80
2023-06-30T00:25:06.258Z,17.80
2023-06-30T00:27:33.313Z,17.70
2023-06-30T00:30:00.414Z,17.70
2023-06-30T00:32:32.631Z,17.70
2023-06-30T00:35:00.583Z,17.60
2023-06-30T00:37:28.067Z,17.60
2023-06-30T00:39:55.117Z,17.50
2023-06-30T00:42:22.161Z,17.40
2023-06-30T00:44:49.161Z,17.40
2023-06-30T00:47:16.401Z,17.30
2023-06-30T00:49:43.737Z,17.30
2023-06-30T00:52:10.886Z,17.20
2023-06-30T00:54:38.370Z,17.20
2023-06-30T00:57:07.962Z,17.10
2023-06-30T00:59:34.994Z,17.10
2023-06-30T01:02:19.584Z,17.00
2023-06-30T01:05:09.525Z,17.00
2023-06-30T01:08:02.666Z,17.00
2023-06-30T01:10:32.524Z,16.90
2023-06-30T01:13:02.455Z,16.90
2023-06-30T01:15:30.216Z,16.90
2023-06-30T01:18:01.623Z,16.90
2023-06-30T01:20:33.876Z,16.90
2023-06-30T01:23:27.192Z,16.90
2023-06-30T01:25:55.516Z,16.90
2023-06-30T01:28:22.982Z,16.90
2023-06-30T01:30:51.349Z,16.80
2023-06-30T01:33:18.549Z,16.80
2023-06-30T01:35:45.793Z,16.80
2023-06-30T01:38:13.359Z,16.80
2023-06-30T01:40:40.648Z,16.80
2023-06-30T01:43:08.146Z,16.80
2023-06-30T01:45:36.092Z,16.80
2023-06-30T01:48:03.372Z,16.80
2023-06-30T01:50:32.840Z,16.80
2023-06-30T01:53:00.877Z,16.80
2023-06-30T01:55:28.198Z,16.70
2023-06-30T01:57:55.296Z,16.70
2023-06-30T02:00:22.456Z,16.70
2023-06-30T02:02:49.690Z,16.70
2023-06-30T02:05:16.836Z,16.70
2023-06-30T02:07:43.974Z,16.60
2023-06-30T02:10:11.332Z,16.60
2023-06-30T02:12:38.441Z,16.60
2023-06-30T02:15:06.239Z,16.60
2023-06-30T02:17:34.439Z,16.60
2023-06-30T02:20:02.493Z,16.60
2023-06-30T02:22:29.665Z,16.50
2023-06-30T02:24:57.661Z,16.50
2023-06-30T02:27:25.727Z,16.50
2023-06-30T02:29:52.928Z,16.50
2023-06-30T02:32:20.453Z,16.50
2023-06-30T02:34:47.703Z,16.50
2023-06-30T02:37:15.222Z,16.50
2023-06-30T02:39:42.455Z,16.50
2023-06-30T02:42:09.572Z,16.40
2023-06-30T02:44:36.691Z,16.40
2023-06-30T02:47:04.576Z,16.40
2023-06-30T02:49:34.318Z,16.40
2023-06-30T02:52:01.711Z,16.30
2023-06-30T02:54:28.814Z,16.30
2023-06-30T02:56:55.884Z,16.30
2023-06-30T02:59:23.132Z,16.30
2023-06-30T03:01:50.922Z,16.30
2023-06-30T03:04:18.163Z,16.30
2023-06-30T03:06:45.165Z,16.30
2023-06-30T03:09:12.232Z,16.20
2023-06-30T03:11:39.249Z,16.20
2023-06-30T03:14:06.286Z,16.20
2023-06-30T03:16:33.646Z,16.20
2023-06-30T03:19:00.696Z,16.20
2023-06-30T03:21:27.740Z,16.10
2023-06-30T03:23:54.838Z,16.10
2023-06-30T03:26:21.969Z,16.10
2023-06-30T03:28:49.012Z,16.10
2023-06-30T03:31:16.093Z,16.10
2023-06-30T03:33:43.169Z,16.00
2023-06-30T03:36:11.827Z,16.00
2023-06-30T03:38:38.931Z,16.00
2023-06-30T03:41:06.031Z,16.00
2023-06-30T03:43:34.184Z,16.00
2023-06-30T03:46:01.482Z,16.00
2023-06-30T03:48:28.578Z,16.00
2023-06-30T03:50:55.761Z,16.00
2023-06-30T03:53:23.229Z,16.00
2023-06-30T03:55:50.318Z,16.00
2023-06-30T03:58:17.385Z,16.00
2023-06-30T04:00:44.456Z,16.10
2023-06-30T04:03:11.974Z,16.10
2023-06-30T04:05:40.305Z,16.10
2023-06-30T04:08:08.266Z,16.10
2023-06-30T04:10:35.453Z,16.20
2023-06-30T04:13:08.349Z,16.20
2023-06-30T04:15:35.413Z,16.20
2023-06-30T04:18:02.865Z,16.30
2023-06-30T04:20:31.300Z,16.30
2023-06-30T04:22:58.357Z,16.30
2023-06-30T04:25:25.490Z,16.40
2023-06-30T04:27:52.578Z,16.40
2023-06-30T04:30:19.847Z,16.50
2023-06-30T04:32:47.792Z,16.50
2023-06-30T04:35:15.963Z,16.50
2023-06-30T04:37:43.117Z,16.60
2023-06-30T04:40:10.678Z,16.60
2023-06-30T04:42:38.264Z,16.70
2023-06-30T04:45:06.945Z,16.70
2023-06-30T04:47:34.103Z,16.80
2023-06-30T04:50:01.184Z,16.80
2023-06-30T04:52:28.683Z,16.80
2023-06-30T04:54:57.407Z,16.80
2023-06-30T04:57:24.686Z,16.90
2023-06-30T04:59:52.282Z,16.90
2023-06-30T05:02:19.641Z,17.00
2023-06-30T05:04:46.770Z,17.00
2023-06-30T05:07:13.913Z,17.10
2023-06-30T05:09:41.061Z,17.10
2023-06-30T05:12:08.860Z,17.20
2023-06-30T05:14:36.272Z,17.20
2023-06-30T05:17:03.606Z,17.30
2023-06-30T05:19:30.736Z,17.30
2023-06-30T05:21:57.861Z,17.40
2023-06-30T05:24:25.213Z,17.40
2023-06-30T05:26:54.633Z,17.50
2023-06-30T05:29:21.796Z,17.60
2023-06-30T05:31:49.269Z,17.60
2023-06-30T05:34:17.086Z,17.70
2023-06-30T05:36:47.460Z,17.80
2023-06-30T05:39:15.340Z,17.90
2023-06-30T05:41:42.668Z,18.00
2023-06-30T05:44:10.496Z,18.00
2023-06-30T05:46:40.915Z,18.00
2023-06-30T05:49:08.342Z,18.10
2023-06-30T05:51:36.916Z,18.20
2023-06-30T05:54:04.498Z,18.30
2023-06-30T05:56:32.103Z,18.40
2023-06-30T05:58:59.955Z,18.50
2023-06-30T06:01:27.117Z,18.60
2023-06-30T06:03:54.460Z,18.70
2023-06-30T06:06:23.809Z,18.80
2023-06-30T06:08:50.953Z,18.80
2023-06-30T06:13:48.272Z,19.00
2023-06-30T06:16:15.409Z,19.00
2023-06-30T06:18:42.450Z,19.10
2023-06-30T06:21:09.502Z,19.10
2023-06-30T06:23:36.866Z,19.20
2023-06-30T06:26:03.965Z,19.30
2023-06-30T06:28:33.775Z,19.40
2023-06-30T06:31:00.923Z,19.50
2023-06-30T06:33:28.038Z,19.50
2023-06-30T06:35:55.119Z,19.60
2023-06-30T06:38:22.196Z,19.60
2023-06-30T06:40:49.342Z,19.70
2023-06-30T06:43:16.536Z,19.70
2023-06-30T06:45:44.532Z,19.80
2023-06-30T06:48:29.356Z,19.80
2023-06-30T06:51:02.271Z,19.80
2023-06-30T06:53:35.618Z,19.80
2023-06-30T06:56:05.026Z,19.90
2023-06-30T06:58:42.116Z,20.00
2023-06-30T07:01:11.123Z,20.10
2023-06-30T07:03:38.532Z,20.20
2023-06-30T07:06:07.473Z,20.30
2023-06-30T07:08:37.816Z,20.40
2023-06-30T07:11:05.567Z,20.40
2023-06-30T07:13:32.636Z,20.50
2023-06-30T07:15:59.851Z,20.60
2023-06-30T07:18:27.053Z,20.70
2023-06-30T07:20:55.568Z,20.80
2023-06-30T07:23:26.456Z,20.80
2023-06-30T07:25:54.262Z,20.90
2023-06-30T07:28:21.391Z,21.00
2023-06-30T07:30:49.544Z,21.10
2023-06-30T07:33:18.420Z,21.20
2023-06-30T07:35:45.962Z,21.20
2023-06-30T07:38:13.296Z,21.30
2023-06-30T07:43:10.409Z,21.40
2023-06-30T07:45:37.559Z,21.40
2023-06-30T07:48:05.944Z,21.50
2023-06-30T07:50:33.082Z,21.60
2023-06-30T07:53:00.203Z,21.70
2023-06-30T07:55:27.266Z,21.80
2023-06-30T07:57:54.491Z,21.90
2023-06-30T08:00:21.667Z,21.90
2023-06-30T08:02:49.226Z,22.00
2023-06-30T08:05:16.586Z,22.20
2023-06-30T08:07:50.293Z,22.30
2023-06-30T08:12:47.171Z,22.60
2023-06-30T08:15:14.311Z,22.70
2023-06-30T08:17:50.767Z,22.70
2023-06-30T08:20:23.001Z,22.80
2023-06-30T08:22:50.221Z,22.90
2023-06-30T08:25:17.457Z,23.00
2023-06-30T08:27:44.769Z,23.10
2023-06-30T08:30:11.981Z,23.10
2023-06-30T08:32:39.335Z,23.20
2023-06-30T08:35:06.746Z,23.30
2023-06-30T08:37:33.997Z,23.40
2023-06-30T08:40:02.151Z,23.50
2023-06-30T08:42:36.157Z,23.60
2023-06-30T08:45:04.760Z,23.60
2023-06-30T08:47:33.771Z,23.70
2023-06-30T08:50:01.911Z,23.80
2023-06-30T08:52:30.104Z,23.90
2023-06-30T08:54:57.237Z,24.00
2023-06-30T08:57:26.188Z,24.00
2023-06-30T08:59:53.345Z,24.10
2023-06-30T09:02:21.191Z,24.20
2023-06-30T09:04:48.498Z,24.20
2023-06-30T09:07:27.685Z,24.30
2023-06-30T09:12:28.680Z,24.50
2023-06-30T09:15:00.989Z,24.50
2023-06-30T09:17:29.100Z,24.70
2023-06-30T09:19:56.196Z,24.70
2023-06-30T09:22:53.908Z,24.80
2023-06-30T09:25:42.690Z,24.90
2023-06-30T09:28:15.610Z,24.90
2023-06-30T09:30:48.718Z,24.90
2023-06-30T09:33:17.969Z,25.00
2023-06-30T09:35:48.002Z,25.00
2023-06-30T09:38:18.105Z,25.10
2023-06-30T09:40:51.217Z,25.20
2023-06-30T09:43:24.725Z,25.30
2023-06-30T09:45:57.067Z,25.30
2023-06-30T09:48:33.198Z,25.40
2023-06-30T09:51:00.937Z,25.60
2023-06-30T09:53:39.612Z,25.60
2023-06-30T09:56:09.967Z,25.60
2023-06-30T09:58:40.213Z,25.70
2023-06-30T10:01:09.437Z,25.80
2023-06-30T10:03:52.100Z,25.90
2023-06-30T10:06:21.824Z,26.00
2023-06-30T10:08:52.346Z,26.10
2023-06-30T10:11:24.257Z,26.20
2023-06-30T10:13:56.134Z,26.20
2023-06-30T10:16:23.941Z,26.30
2023-06-30T10:18:52.678Z,26.40
2023-06-30T10:21:25.700Z,26.50
2023-06-30T10:23:54.085Z,26.60
2023-06-30T10:26:22.563Z,26.60
2023-06-30T10:28:50.390Z,26.80
2023-06-30T10:31:18.036Z,27.00
2023-06-30T10:33:45.446Z,27.10
2023-06-30T10:36:14.456Z,27.20
2023-06-30T10:38:44.420Z,27.30
2023-06-30T10:41:20.786Z,27.40
2023-06-30T10:44:03.251Z,27.40
2023-06-30T10:46:57.281Z,27.50
2023-06-30T10:49:35.552Z,27.60
2023-06-30T10:54:48.501Z,27.70
2023-06-30T11:00:11.500Z,28.00
2023-06-30T11:02:56.149Z,28.10
2023-06-30T11:05:34.919Z,28.20
2023-06-30T11:08:10.285Z,28.20
2023-06-30T11:10:46.366Z,28.20
2023-06-30T11:13:13.831Z,28.20
2023-06-30T11:15:44.014Z,28.10
2023-06-30T11:18:22.448Z,28.20
2023-06-30T11:21:00.764Z,28.30
2023-06-30T11:23:38.570Z,28.30
2023-06-30T11:26:21.636Z,28.40
2023-06-30T11:28:49.619Z,28.40
2023-06-30T11:31:17.617Z,28.30
2023-06-30T11:33:46.437Z,28.30
2023-06-30T11:36:14.801Z,28.30
2023-06-30T11:38:51.848Z,28.30
2023-06-30T11:41:20.489Z,28.50
2023-06-30T11:43:52.310Z,28.60
2023-06-30T11:46:19.593Z,28.70
2023-06-30T11:48:46.709Z,28.70
2023-06-30T11:51:13.818Z,28.90
2023-06-30T11:53:47.656Z,28.90
2023-06-30T11:56:14.797Z,29.00
2023-06-30T11:58:59.987Z,29.10
2023-06-30T12:11:49.931Z,29.60
2023-06-30T12:14:19.530Z,29.70
2023-06-30T12:16:51.083Z,29.80
2023-06-30T12:19:23.461Z,29.80
2023-06-30T12:22:02.036Z,29.90
2023-06-30T12:39:35.244Z,30.40
2023-06-30T12:42:02.436Z,30.40
2023-06-30T12:44:31.762Z,30.50
2023-06-30T12:47:04.682Z,30.60
2023-06-30T12:49:32.021Z,30.60
2023-06-30T12:52:01.811Z,30.70
2023-06-30T12:54:33.453Z,30.80
2023-06-30T12:57:00.582Z,30.80
2023-06-30T12:59:31.464Z,30.90
2023-06-30T13:01:58.527Z,30.90
2023-06-30T13:04:28.256Z,31.00
2023-06-30T13:06:55.503Z,31.00
2023-06-30T13:09:22.595Z,31.10
2023-06-30T13:11:50.029Z,31.10
2023-06-30T13:14:17.589Z,31.20
2023-06-30T13:16:44.769Z,31.20
2023-06-30T13:19:11.870Z,31.20
2023-06-30T13:21:38.937Z,31.30
2023-06-30T13:24:06.539Z,31.30
2023-06-30T13:26:35.376Z,31.40
2023-06-30T13:29:05.164Z,31.50
2023-06-30T13:31:32.485Z,31.50
2023-06-30T13:33:59.752Z,31.60
2023-06-30T13:36:28.986Z,31.70
2023-06-30T13:38:58.017Z,31.80
2023-06-30T13:41:27.220Z,31.80
2023-06-30T13:43:54.538Z,31.80
2023-06-30T13:46:22.216Z,31.90
2023-06-30T13:48:49.391Z,31.90
2023-06-30T13:51:16.478Z,31.80
2023-06-30T13:53:43.540Z,31.80
2023-06-30T13:56:10.638Z,31.90
2023-06-30T13:58:38.235Z,31.90
2023-06-30T14:01:06.639Z,32.00
2023-06-30T14:03:34.502Z,32.10
2023-06-30T14:06:01.633Z,32.10
2023-06-30T14:08:47.292Z,32.10
2023-06-30T14:11:19.115Z,32.20
2023-06-30T14:13:46.452Z,32.20
2023-06-30T14:16:13.609Z,32.20
2023-06-30T14:18:40.969Z,32.20
2023-06-30T14:21:08.129Z,32.20
2023-06-30T14:23:35.183Z,32.20
2023-06-30T14:26:02.991Z,32.20
2023-06-30T14:28:30.067Z,32.30
2023-06-30T14:30:57.165Z,32.30
2023-06-30T14:33:24.347Z,32.20
2023-06-30T14:35:51.411Z,32.10
2023-06-30T14:38:20.563Z,32.30
2023-06-30T14:40:49.293Z,32.30
2023-06-30T14:43:16.357Z,32.30
2023-06-30T14:45:43.637Z,32.40
2023-06-30T14:48:10.977Z,32.50
2023-06-30T14:50:38.085Z,32.50
2023-06-30T14:53:05.202Z,32.40
2023-06-30T14:55:32.298Z,32.50
2023-06-30T14:57:59.408Z,32.50
2023-06-30T15:00:26.579Z,32.60
2023-06-30T15:02:53.869Z,32.70
2023-06-30T15:05:21.603Z,32.70
2023-06-30T15:07:51.161Z,32.70
2023-06-30T15:10:18.718Z,32.60
2023-06-30T15:12:46.025Z,32.50
2023-06-30T15:15:13.248Z,32.60
2023-06-30T15:17:40.590Z,32.60
2023-06-30T15:20:08.907Z,32.60
2023-06-30T15:22:36.292Z,32.50
2023-06-30T15:25:04.644Z,32.50
2023-06-30T15:27:33.307Z,32.50
2023-06-30T15:30:00.620Z,32.50
2023-06-30T15:32:27.879Z,32.40
2023-06-30T15:34:55.049Z,32.30
2023-06-30T15:37:22.446Z,32.20
2023-06-30T15:39:49.966Z,32.00
2023-06-30T15:42:17.421Z,31.70
2023-06-30T15:44:44.524Z,31.30
2023-06-30T15:47:11.639Z,31.00
2023-06-30T15:49:38.726Z,30.80
2023-06-30T15:52:06.624Z,30.60
2023-06-30T15:54:33.690Z,30.40
2023-06-30T15:57:00.829Z,30.20
2023-06-30T15:59:27.856Z,30.00
2023-06-30T16:01:55.152Z,29.80
2023-06-30T16:04:22.287Z,29.70
2023-06-30T16:06:49.515Z,29.60
2023-06-30T16:09:16.645Z,29.50
2023-06-30T16:11:43.780Z,29.40
2023-06-30T16:14:11.181Z,29.30
2023-06-30T16:16:38.391Z,29.20
2023-06-30T16:19:05.467Z,29.10
2023-06-30T16:21:33.033Z,29.00
2023-06-30T16:24:00.052Z,29.00
2023-06-30T16:26:27.249Z,28.90
2023-06-30T16:28:54.356Z,28.80
2023-06-30T16:31:21.426Z,28.70
2023-06-30T16:33:48.622Z,28.60
2023-06-30T16:36:15.945Z,28.50
2023-06-30T16:46:06.648Z,28.20
2023-06-30T16:48:34.150Z,28.20
2023-06-30T16:51:01.204Z,28.10
2023-06-30T16:53:28.281Z,28.00
2023-06-30T16:55:55.385Z,27.90
2023-06-30T16:58:26.400Z,27.80
2023-06-30T17:00:53.863Z,27.80
2023-06-30T17:03:21.209Z,27.80
2023-06-30T17:05:48.633Z,27.70
2023-06-30T17:08:16.119Z,27.60
2023-06-30T17:10:46.794Z,27.60
2023-06-30T17:13:15.669Z,27.40
2023-06-30T17:15:44.125Z,27.30
2023-06-30T17:18:12.413Z,27.20
2023-06-30T17:20:41.051Z,27.10
2023-06-30T17:23:09.093Z,27.00
2023-06-30T17:25:37.219Z,26.90
2023-06-30T17:28:05.727Z,26.80
2023-06-30T17:30:33.567Z,26.70
2023-06-30T17:33:01.373Z,26.50
2023-06-30T17:35:29.304Z,26.50
2023-06-30T17:42:53.167Z,26.10
2023-06-30T17:45:20.675Z,26.00
2023-06-30T17:47:48.376Z,25.90
2023-06-30T17:50:18.322Z,25.80
2023-06-30T17:52:46.337Z,25.70
2023-06-30T17:55:14.093Z,25.50
2023-06-30T17:57:41.636Z,25.30
2023-06-30T18:02:39.193Z,24.90
2023-06-30T18:05:08.057Z,24.70
2023-06-30T18:07:36.678Z,24.50
2023-06-30T18:10:05.664Z,24.30
2023-06-30T18:12:34.469Z,24.10
2023-06-30T18:15:03.260Z,23.90
2023-06-30T18:17:32.079Z,23.70
2023-06-30T18:20:00.828Z,23.50
2023-06-30T18:22:29.630Z,23.40
2023-06-30T18:24:58.298Z,23.30
2023-06-30T18:27:27.071Z,23.20
2023-06-30T18:29:55.890Z,23.10
2023-06-30T18:32:24.718Z,23.00
2023-06-30T18:34:54.360Z,22.90
2023-06-30T18:37:23.042Z,22.90
2023-06-30T18:39:51.991Z,22.80
2023-06-30T18:42:20.761Z,22.70
2023-06-30T18:44:49.558Z,22.70
2023-06-30T18:47:18.419Z,22.60
2023-06-30T18:49:47.138Z,22.60
2023-06-30T18:52:16.851Z,22.50
2023-06-30T18:54:46.822Z,22.50
2023-06-30T18:57:16.381Z,22.50
2023-06-30T18:59:45.468Z,22.40
2023-06-30T19:02:14.194Z,22.40
2023-06-30T19:04:43.227Z,22.40
2023-06-30T19:07:11.968Z,22.30
2023-06-30T19:09:40.578Z,22.30
2023-06-30T19:12:09.740Z,22.20
2023-06-30T19:14:38.493Z,22.20
2023-06-30T19:17:07.283Z,22.10
2023-06-30T19:19:36.090Z,22.00
2023-06-30T19:22:04.897Z,21.90
2023-06-30T19:24:33.843Z,21.80
2023-06-30T19:27:02.695Z,21.80
2023-06-30T19:29:32.269Z,21.70
2023-06-30T19:32:01.066Z,21.70
2023-06-30T19:34:29.871Z,21.60
2023-06-30T19:37:00.427Z,21.60
2023-06-30T19:39:29.347Z,21.60
2023-06-30T19:42:01.199Z,21.60
2023-06-30T19:44:29.940Z,21.50
2023-06-30T19:46:58.691Z,21.60
2023-06-30T19:49:27.774Z,21.50
2023-06-30T19:51:56.621Z,21.50
2023-06-30T19:54:25.520Z,21.50
2023-06-30T19:56:55.233Z,21.50
2023-06-30T19:59:24.234Z,21.50
2023-06-30T20:01:56.440Z,21.40
2023-06-30T20:04:25.461Z,21.40
2023-06-30T20:06:54.108Z,21.40
2023-06-30T20:09:23.136Z,21.40
2023-06-30T20:11:52.246Z,21.40
2023-06-30T20:14:21.055Z,21.40
2023-06-30T20:16:50.059Z,21.40
2023-06-30T20:19:21.886Z,21.40
2023-06-30T20:21:50.725Z,21.40
2023-06-30T20:24:22.207Z,21.30
2023-06-30T20:26:51.051Z,21.30
2023-06-30T20:29:22.155Z,21.30
2023-06-30T20:31:50.871Z,21.30
2023-06-30T20:34:19.538Z,21.20
2023-06-30T20:36:48.342Z,21.20
2023-06-30T20:39:17.157Z,21.20
2023-06-30T20:41:45.827Z,21.20
2023-06-30T20:44:15.275Z,21.20
2023-06-30T20:46:43.864Z,21.20
2023-06-30T20:49:12.040Z,21.10
2023-06-30T20:51:40.678Z,21.10
2023-06-30T20:54:09.189Z,21.10
2023-06-30T20:56:37.372Z,21.10
2023-06-30T20:59:05.326Z,21.00
2023-06-30T21:01:32.454Z,21.00
2023-06-30T21:03:59.661Z,21.00
2023-06-30T21:06:28.553Z,21.00
2023-06-30T21:08:55.786Z,21.00
2023-06-30T21:11:22.817Z,21.00
2023-06-30T21:13:49.876Z,21.00
2023-06-30T21:16:17.044Z,21.00
2023-06-30T21:18:44.415Z,21.00
2023-06-30T21:21:11.547Z,21.00
2023-06-30T21:23:38.599Z,20.90
2023-06-30T21:26:05.749Z,20.90
2023-06-30T21:28:32.865Z,20.90
2023-06-30T21:31:00.223Z,20.90
2023-06-30T21:33:27.399Z,20.90
2023-06-30T21:35:54.504Z,20.80
2023-06-30T21:38:21.588Z,20.80
2023-06-30T21:40:48.940Z,20.80
2023-06-30T21:43:16.215Z,20.80
2023-06-30T21:45:43.274Z,20.80
2023-06-30T21:48:12.432Z,20.80
2023-06-30T21:50:40.928Z,20.80
2023-06-30T21:53:08.143Z,20.70
2023-06-30T21:55:35.378Z,20.70
2023-06-30T21:58:06.456Z,20.70
2023-06-30T22:00:38.581Z,20.70
2023-06-30T22:03:07.038Z,20.60
2023-06-30T22:05:34.216Z,20.60
2023-06-30T22:08:01.301Z,20.60
2023-06-30T22:10:28.399Z,20.60
2023-06-30T22:12:55.441Z,20.50
2023-06-30T22:15:24.461Z,20.60
2023-06-30T22:17:52.584Z,20.50
2023-06-30T22:20:21.164Z,20.50
2023-06-30T22:22:48.724Z,20.50
2023-06-30T22:25:17.450Z,20.40
2023-06-30T22:27:44.919Z,20.40
2023-06-30T22:30:12.775Z,20.40
2023-06-30T22:32:40.080Z,20.40
2023-06-30T22:35:07.476Z,20.30
2023-06-30T22:37:34.737Z,20.30
2023-06-30T22:40:01.767Z,20.30
2023-06-30T22:42:28.832Z,20.20
2023-06-30T22:44:55.905Z,20.20
2023-06-30T22:47:22.961Z,20.20
2023-06-30T22:49:50.001Z,20.20
2023-06-30T22:52:17.077Z,20.20
2023-06-30T22:54:44.532Z,20.20
2023-06-30T22:57:11.778Z,20.20
2023-06-30T22:59:38.978Z,20.10
2023-06-30T23:02:06.392Z,20.10
2023-06-30T23:04:33.486Z,20.10
2023-06-30T23:07:00.559Z,20.10
2023-06-30T23:09:27.669Z,20.10
2023-06-30T23:11:54.736Z,20.10
2023-06-30T23:14:22.475Z,20.10
2023-06-30T23:16:49.942Z,20.10
2023-06-30T23:19:17.127Z,20.10
2023-06-30T23:21:47.300Z,20.00
2023-06-30T23:24:14.541Z,20.00
2023-06-30T23:26:41.945Z,20.00
2023-06-30T23:29:11.620Z,20.00
2023-06-30T23:31:42.328Z,20.00
2023-06-30T23:34:09.615Z,20.00
2023-06-30T23:36:37.543Z,19.90
2023-06-30T23:39:04.748Z,19.90
2023-06-30T23:41:31.859Z,19.90
2023-06-30T23:43:58.988Z,19.90
2023-06-30T23:46:26.080Z,19.90
2023-06-30T23:48:53.254Z,19.90
2023-06-30T23:51:21.306Z,19.90
2023-06-30T23:53:48.376Z,19.90
2023-06-30T23:56:15.561Z,19.90
2023-06-30T23:58:42.637Z,19.90
